Time;durP1;ratioP1;P1;durP2;ratioP2;P2;SDS_P1;SDS_P2;PMS_P1;PMS_P2;Temp;Humidity;BMP_temperature;BMP_pressure;BME280_temperature;BME280_humidity;BME280_pressure;Samples;Min_cycle;Max_cycle;Signal;HPM_P1;HPM_P2
2021/10/31 00:01:02;;;;;;;6.37;5.77;;;;;;;;;;5070615;28;20711;-61
2021/10/31 00:03:28;;;;;;;6.37;5.77;;;;;;;;;;5069973;28;20164;-61
2021/10/31 00:05:54;;;;;;;6.40;5.80;;;;;;;;;;5070145;28;20165;-61
2021/10/31 00:08:20;;;;;;;6.60;5.80;;;;;;;;;;5070159;28;20180;-61
2021/10/31 00:10:48;;;;;;;6.43;5.83;;;;;;;;;;5070256;28;20233;-62
2021/10/31 00:13:14;;;;;;;6.90;6.20;;;;;;;;;;5070510;28;20164;-61
2021/10/31 00:15:40;;;;;;;6.30;5.70;;;;;;;;;;5069845;28;20646;-61
2021/10/31 00:18:06;;;;;;;5.73;5.23;;;;;;;;;;5055575;28;20209;-61
2021/10/31 00:20:32;;;;;;;6.50;5.67;;;;;;;;;;5049671;28;20181;-61
2021/10/31 00:22:58;;;;;;;7.07;5.53;;;;;;;;;;5048176;28;20177;-61
2021/10/31 00:25:24;;;;;;;6.27;5.67;;;;;;;;;;5049966;28;20200;-61
2021/10/31 00:27:50;;;;;;;6.03;5.43;;;;;;;;;;5049566;28;20922;-61
2021/10/31 00:30:16;;;;;;;5.00;4.47;;;;;;;;;;5049666;28;20216;-61
2021/10/31 00:32:42;;;;;;;5.57;5.07;;;;;;;;;;5048324;28;20537;-61
2021/10/31 00:35:08;;;;;;;5.50;5.00;;;;;;;;;;5048097;28;20181;-61
2021/10/31 00:37:34;;;;;;;5.73;5.23;;;;;;;;;;5049061;28;20205;-61
2021/10/31 00:40:00;;;;;;;6.43;5.80;;;;;;;;;;5049994;28;20694;-61
2021/10/31 00:42:27;;;;;;;6.20;5.63;;;;;;;;;;5048026;28;20181;-61
2021/10/31 00:44:53;;;;;;;6.13;5.53;;;;;;;;;;5065404;28;20168;-61
2021/10/31 00:47:19;;;;;;;5.20;4.70;;;;;;;;;;5069311;28;20535;-61
2021/10/31 00:49:45;;;;;;;7.10;5.00;;;;;;;;;;5068622;28;20172;-61
2021/10/31 00:52:11;;;;;;;5.53;5.00;;;;;;;;;;5067613;28;20187;-60
2021/10/31 00:54:38;;;;;;;5.17;4.77;;;;;;;;;;5069078;28;20168;-61
2021/10/31 00:57:07;;;;;;;5.10;4.60;;;;;;;;;;5051582;28;20674;-60
2021/10/31 00:59:33;;;;;;;7.10;5.10;;;;;;;;;;5049392;28;20172;-61
2021/10/31 01:02:04;;;;;;;5.70;5.20;;;;;;;;;;5049196;28;20227;-61
2021/10/31 01:04:30;;;;;;;5.93;4.50;;;;;;;;;;5048326;28;20149;-61
2021/10/31 01:06:57;;;;;;;5.80;5.30;;;;;;;;;;5049011;28;20200;-60
2021/10/31 01:09:32;;;;;;;5.30;4.80;;;;;;;;;;5048959;28;20719;-61
2021/10/31 01:12:06;;;;;;;8.90;5.40;;;;;;;;;;5048024;28;20634;-61
2021/10/31 01:14:51;;;;;;;5.10;4.63;;;;;;;;;;5048789;28;20647;-61
2021/10/31 01:17:23;;;;;;;5.47;4.97;;;;;;;;;;5047182;28;20679;-61
2021/10/31 01:19:56;;;;;;;5.67;5.10;;;;;;;;;;5048210;28;20169;-61
2021/10/31 01:22:34;;;;;;;5.93;5.33;;;;;;;;;;5047140;28;20178;-61
2021/10/31 01:25:10;;;;;;;5.10;4.60;;;;;;;;;;5047330;28;20608;-61
2021/10/31 01:27:59;;;;;;;6.23;4.80;;;;;;;;;;5045374;28;20683;-61
2021/10/31 01:30:44;;;;;;;5.67;4.53;;;;;;;;;;5027463;28;20174;-61
2021/10/31 01:33:20;;;;;;;6.60;5.27;;;;;;;;;;5026954;28;20181;-61
2021/10/31 01:35:49;;;;;;;5.00;4.53;;;;;;;;;;5026872;28;20169;-61
2021/10/31 01:38:33;;;;;;;5.20;4.60;;;;;;;;;;5028423;28;20456;-61
2021/10/31 01:41:02;;;;;;;4.83;4.20;;;;;;;;;;5028515;28;20151;-61
2021/10/31 01:43:47;;;;;;;5.00;4.23;;;;;;;;;;5039186;28;20290;-61
2021/10/31 01:46:22;;;;;;;5.00;4.50;;;;;;;;;;5068470;28;20180;-60
2021/10/31 01:49:02;;;;;;;5.50;4.57;;;;;;;;;;5067604;28;20167;-61
2021/10/31 01:51:58;;;;;;;4.50;3.90;;;;;;;;;;5066471;28;20536;-60
2021/10/31 01:54:34;;;;;;;4.20;3.83;;;;;;;;;;5054123;28;20261;-61
2021/10/31 01:57:02;;;;;;;4.77;4.37;;;;;;;;;;5068050;28;20263;-61
2021/10/31 01:59:34;;;;;;;5.30;4.40;;;;;;;;;;5067929;28;20255;-61
2021/10/31 02:02:01;;;;;;;4.53;3.60;;;;;;;;;;5068242;28;20157;-60
2021/10/31 02:04:31;;;;;;;3.60;3.30;;;;;;;;;;5067263;28;20168;-61
2021/10/31 02:06:59;;;;;;;5.63;4.70;;;;;;;;;;5066375;28;20184;-61
2021/10/31 02:09:28;;;;;;;4.27;3.87;;;;;;;;;;5066358;28;20184;-61
2021/10/31 02:12:01;;;;;;;6.27;4.37;;;;;;;;;;5067898;28;20651;-61
2021/10/31 02:14:28;;;;;;;4.70;3.93;;;;;;;;;;5066617;28;20172;-60
2021/10/31 02:16:56;;;;;;;4.03;3.63;;;;;;;;;;5062013;28;20314;-61
2021/10/31 02:19:40;;;;;;;4.70;4.07;;;;;;;;;;5045463;28;20211;-61
2021/10/31 02:22:08;;;;;;;4.43;4.03;;;;;;;;;;5046525;28;20519;-61
2021/10/31 02:24:35;;;;;;;3.90;3.60;;;;;;;;;;5046147;28;20327;-61
2021/10/31 02:27:10;;;;;;;4.70;3.70;;;;;;;;;;5046482;28;20197;-61
2021/10/31 02:29:44;;;;;;;3.33;3.00;;;;;;;;;;5046008;28;20174;-61
2021/10/31 02:32:10;;;;;;;4.20;3.60;;;;;;;;;;5048044;28;20677;-61
2021/10/31 02:34:36;;;;;;;4.07;3.53;;;;;;;;;;5046873;28;20865;-61
2021/10/31 02:37:02;;;;;;;4.10;3.70;;;;;;;;;;5047775;28;20289;-61
2021/10/31 02:39:28;;;;;;;3.53;3.20;;;;;;;;;;5047289;28;20169;-61
2021/10/31 02:41:54;;;;;;;4.03;3.63;;;;;;;;;;5048037;28;20173;-60
2021/10/31 02:44:20;;;;;;;3.40;3.10;;;;;;;;;;5060139;28;20180;-60
2021/10/31 02:46:46;;;;;;;4.20;3.40;;;;;;;;;;5068071;28;20179;-60
2021/10/31 02:49:13;;;;;;;3.63;3.33;;;;;;;;;;5067008;28;20251;-60
2021/10/31 02:51:44;;;;;;;4.83;3.77;;;;;;;;;;5066685;28;20655;-60
2021/10/31 02:54:16;;;;;;;3.90;3.60;;;;;;;;;;5068548;28;20272;-59
2021/10/31 02:56:45;;;;;;;3.77;3.47;;;;;;;;;;5056367;28;20296;-60
2021/10/31 02:59:34;;;;;;;4.20;3.77;;;;;;;;;;5049567;28;20177;-59
2021/10/31 03:02:01;;;;;;;5.83;3.50;;;;;;;;;;5051073;28;20164;-60
2021/10/31 03:04:27;;;;;;;4.03;3.27;;;;;;;;;;5048732;28;20276;-60
2021/10/31 03:06:55;;;;;;;4.33;3.80;;;;;;;;;;5034280;28;20263;-60
2021/10/31 03:09:21;;;;;;;4.03;3.03;;;;;;;;;;5031173;28;20181;-59
2021/10/31 03:11:47;;;;;;;3.70;3.40;;;;;;;;;;5031737;28;20640;-60
2021/10/31 03:14:13;;;;;;;3.63;3.30;;;;;;;;;;5031067;28;20201;-60
2021/10/31 03:16:39;;;;;;;4.97;3.83;;;;;;;;;;5031420;28;20449;-59
2021/10/31 03:19:05;;;;;;;3.83;3.30;;;;;;;;;;5050438;28;20204;-60
2021/10/31 03:21:31;;;;;;;4.40;3.53;;;;;;;;;;5050092;28;20632;-59
2021/10/31 03:23:57;;;;;;;3.83;3.47;;;;;;;;;;5049788;28;20541;-60
2021/10/31 03:26:24;;;;;;;3.77;3.40;;;;;;;;;;5050785;28;20366;-60
2021/10/31 03:28:50;;;;;;;4.97;3.20;;;;;;;;;;5049750;28;20188;-59
2021/10/31 03:31:16;;;;;;;4.93;3.20;;;;;;;;;;5050965;28;20180;-59
2021/10/31 03:33:42;;;;;;;4.67;3.60;;;;;;;;;;5050431;28;20610;-60
2021/10/31 03:36:09;;;;;;;5.53;4.10;;;;;;;;;;5049786;28;20624;-60
2021/10/31 03:38:35;;;;;;;5.23;3.43;;;;;;;;;;5050631;28;20203;-60
2021/10/31 03:41:01;;;;;;;5.53;3.57;;;;;;;;;;5050830;28;20165;-60
2021/10/31 03:43:27;;;;;;;7.70;3.93;;;;;;;;;;5038149;28;20171;-60
2021/10/31 03:45:53;;;;;;;3.60;3.17;;;;;;;;;;5057211;28;20264;-60
2021/10/31 03:48:19;;;;;;;5.70;3.90;;;;;;;;;;5050183;28;20165;-60
2021/10/31 03:50:45;;;;;;;6.20;3.87;;;;;;;;;;5048697;28;20323;-60
2021/10/31 03:53:11;;;;;;;3.93;3.57;;;;;;;;;;5050111;28;20169;-60
2021/10/31 03:55:37;;;;;;;4.87;4.27;;;;;;;;;;5050315;28;20654;-60
2021/10/31 03:58:03;;;;;;;5.30;3.77;;;;;;;;;;5048892;28;20246;-60
2021/10/31 04:00:29;;;;;;;5.07;4.00;;;;;;;;;;5048987;28;20253;-60
2021/10/31 04:02:56;;;;;;;7.73;4.37;;;;;;;;;;5049921;28;20184;-60
2021/10/31 04:05:22;;;;;;;6.20;4.20;;;;;;;;;;5047634;28;20177;-60
2021/10/31 04:07:51;;;;;;;4.03;3.70;;;;;;;;;;5048314;28;20188;-60
2021/10/31 04:10:17;;;;;;;4.97;3.83;;;;;;;;;;5048782;28;20197;-60
2021/10/31 04:12:43;;;;;;;4.00;3.60;;;;;;;;;;5050361;28;20169;-60
2021/10/31 04:15:10;;;;;;;6.73;3.60;;;;;;;;;;5049744;28;20233;-60
2021/10/31 04:17:36;;;;;;;4.30;3.90;;;;;;;;;;5027840;28;20208;-60
2021/10/31 04:20:03;;;;;;;7.10;4.03;;;;;;;;;;5011656;28;20193;-60
2021/10/31 04:22:30;;;;;;;3.93;3.53;;;;;;;;;;5011565;28;20170;-60
2021/10/31 04:24:56;;;;;;;4.70;3.50;;;;;;;;;;5012005;28;20269;-61
2021/10/31 04:27:22;;;;;;;5.00;4.03;;;;;;;;;;5030065;28;20628;-61
2021/10/31 04:29:48;;;;;;;4.30;3.30;;;;;;;;;;5029591;28;20169;-61
2021/10/31 04:32:14;;;;;;;4.60;4.23;;;;;;;;;;5012291;28;20599;-61
2021/10/31 04:34:40;;;;;;;7.57;3.90;;;;;;;;;;5028690;28;20260;-61
2021/10/31 04:37:06;;;;;;;4.37;3.93;;;;;;;;;;5029298;28;20273;-60
2021/10/31 04:39:32;;;;;;;4.23;3.73;;;;;;;;;;5011516;28;20178;-60
2021/10/31 04:42:04;;;;;;;4.90;3.90;;;;;;;;;;5011867;28;20666;-60
2021/10/31 04:44:30;;;;;;;6.20;3.57;;;;;;;;;;5043358;28;20215;-60
2021/10/31 04:46:57;;;;;;;5.83;4.47;;;;;;;;;;5031372;28;20189;-60
2021/10/31 04:49:23;;;;;;;5.73;4.13;;;;;;;;;;5048409;28;20173;-60
2021/10/31 04:51:49;;;;;;;5.33;4.07;;;;;;;;;;5048777;28;20184;-60
2021/10/31 04:54:16;;;;;;;4.47;4.07;;;;;;;;;;5031326;28;20762;-60
2021/10/31 04:56:42;;;;;;;4.73;4.13;;;;;;;;;;5030501;28;20235;-60
2021/10/31 04:59:08;;;;;;;6.17;4.20;;;;;;;;;;5049002;28;20655;-60
2021/10/31 05:01:34;;;;;;;4.77;4.33;;;;;;;;;;5048955;28;20169;-61
2021/10/31 05:04:00;;;;;;;4.73;4.27;;;;;;;;;;5048672;28;20691;-60
2021/10/31 05:06:30;;;;;;;4.73;4.33;;;;;;;;;;5029953;28;20180;-60
2021/10/31 05:08:59;;;;;;;5.37;4.37;;;;;;;;;;5031153;28;20660;-59
2021/10/31 05:11:26;;;;;;;5.20;4.20;;;;;;;;;;5030790;28;20181;-60
2021/10/31 05:13:52;;;;;;;5.77;4.30;;;;;;;;;;5031004;28;20185;-60
2021/10/31 05:16:19;;;;;;;5.13;4.37;;;;;;;;;;5061037;28;20259;-60
2021/10/31 05:18:45;;;;;;;4.70;4.30;;;;;;;;;;5049879;28;20180;-61
2021/10/31 05:21:11;;;;;;;5.93;4.60;;;;;;;;;;5049929;28;20183;-60
2021/10/31 05:23:37;;;;;;;4.87;4.30;;;;;;;;;;5068717;28;20176;-60
2021/10/31 05:26:04;;;;;;;5.23;4.73;;;;;;;;;;5068468;28;20269;-60
2021/10/31 05:28:31;;;;;;;4.40;3.77;;;;;;;;;;5050496;28;20589;-59
2021/10/31 05:30:57;;;;;;;7.90;4.37;;;;;;;;;;5068576;28;20172;-60
2021/10/31 05:33:27;;;;;;;5.47;4.83;;;;;;;;;;5050050;28;20315;-60
2021/10/31 05:35:53;;;;;;;4.80;4.30;;;;;;;;;;5067893;28;20176;-61
2021/10/31 05:38:20;;;;;;;4.53;4.07;;;;;;;;;;5049901;28;20250;-60
2021/10/31 05:40:50;;;;;;;4.70;4.20;;;;;;;;;;5068350;28;20181;-61
2021/10/31 05:43:16;;;;;;;6.07;3.87;;;;;;;;;;5050223;28;20179;-61
2021/10/31 05:45:43;;;;;;;4.47;4.07;;;;;;;;;;5055594;28;20544;-60
2021/10/31 05:48:10;;;;;;;5.27;4.77;;;;;;;;;;5046103;28;20634;-60
2021/10/31 05:50:37;;;;;;;4.97;4.47;;;;;;;;;;5046493;28;20184;-61
2021/10/31 05:53:04;;;;;;;6.73;4.53;;;;;;;;;;5048098;28;20173;-60
2021/10/31 05:55:30;;;;;;;5.67;4.40;;;;;;;;;;5046492;28;20643;-60
2021/10/31 05:57:56;;;;;;;6.23;4.37;;;;;;;;;;5046765;28;20204;-60
2021/10/31 06:00:23;;;;;;;4.57;4.17;;;;;;;;;;5048065;28;20181;-61
2021/10/31 06:02:52;;;;;;;6.47;4.43;;;;;;;;;;5046270;28;20703;-60
2021/10/31 06:05:18;;;;;;;4.67;4.07;;;;;;;;;;5046339;28;20183;-60
2021/10/31 06:07:45;;;;;;;5.07;4.57;;;;;;;;;;5047455;28;20177;-60
2021/10/31 06:10:12;;;;;;;5.37;4.90;;;;;;;;;;5046591;28;20594;-61
2021/10/31 06:12:41;;;;;;;4.80;4.30;;;;;;;;;;5047879;28;20744;-60
2021/10/31 06:15:08;;;;;;;6.27;4.80;;;;;;;;;;5047934;28;20691;-61
2021/10/31 06:17:34;;;;;;;6.73;5.20;;;;;;;;;;5049046;28;20210;-61
2021/10/31 06:20:01;;;;;;;5.10;4.70;;;;;;;;;;5049906;28;20593;-60
2021/10/31 06:22:27;;;;;;;5.20;4.70;;;;;;;;;;5067357;28;20210;-61
2021/10/31 06:24:54;;;;;;;4.83;4.30;;;;;;;;;;5068079;28;20199;-61
2021/10/31 06:27:20;;;;;;;5.07;4.57;;;;;;;;;;5049371;28;20180;-60
2021/10/31 06:29:46;;;;;;;5.67;4.83;;;;;;;;;;5049452;28;20354;-60
2021/10/31 06:32:13;;;;;;;6.27;4.93;;;;;;;;;;5067920;28;20188;-60
2021/10/31 06:34:39;;;;;;;6.90;4.90;;;;;;;;;;5066983;28;20646;-59
2021/10/31 06:37:05;;;;;;;5.47;4.57;;;;;;;;;;5049202;28;20287;-60
2021/10/31 06:39:32;;;;;;;5.23;4.73;;;;;;;;;;5067931;28;20169;-60
2021/10/31 06:41:58;;;;;;;4.80;4.33;;;;;;;;;;5049749;28;20183;-61
2021/10/31 06:44:25;;;;;;;5.23;4.60;;;;;;;;;;5049088;28;20172;-60
2021/10/31 06:46:52;;;;;;;5.27;4.87;;;;;;;;;;5049768;28;20176;-60
2021/10/31 06:49:19;;;;;;;4.97;4.47;;;;;;;;;;5048599;28;20606;-61
2021/10/31 06:51:45;;;;;;;7.33;4.70;;;;;;;;;;5049182;28;20191;-61
2021/10/31 06:54:11;;;;;;;4.87;4.47;;;;;;;;;;5067570;28;20172;-60
2021/10/31 06:56:38;;;;;;;5.43;4.93;;;;;;;;;;5053454;28;20368;-61
2021/10/31 06:59:04;;;;;;;5.77;4.67;;;;;;;;;;5047486;28;20192;-61
2021/10/31 07:01:30;;;;;;;5.63;5.00;;;;;;;;;;5047519;28;20231;-59
2021/10/31 07:03:56;;;;;;;5.57;4.87;;;;;;;;;;5046150;28;20169;-60
2021/10/31 07:06:22;;;;;;;5.27;4.77;;;;;;;;;;5046469;28;20227;-61
2021/10/31 07:08:48;;;;;;;4.80;4.27;;;;;;;;;;5047486;28;20184;-60
2021/10/31 07:11:14;;;;;;;5.83;4.53;;;;;;;;;;5047267;28;20173;-61
2021/10/31 07:13:40;;;;;;;4.90;4.50;;;;;;;;;;5047782;28;20787;-60
2021/10/31 07:16:06;;;;;;;4.93;4.40;;;;;;;;;;5047183;28;20225;-60
2021/10/31 07:18:36;;;;;;;6.57;4.83;;;;;;;;;;5046664;28;20185;-60
2021/10/31 07:21:04;;;;;;;4.70;4.30;;;;;;;;;;5044938;28;20204;-61
2021/10/31 07:23:30;;;;;;;7.23;4.47;;;;;;;;;;5045842;28;20521;-60
2021/10/31 07:25:56;;;;;;;4.43;4.03;;;;;;;;;;5047328;28;20185;-60
2021/10/31 07:28:22;;;;;;;5.83;4.10;;;;;;;;;;5045479;28;20390;-60
2021/10/31 07:30:50;;;;;;;5.23;4.73;;;;;;;;;;5047756;28;20181;-60
2021/10/31 07:33:16;;;;;;;4.70;4.30;;;;;;;;;;5046555;28;20174;-61
2021/10/31 07:35:46;;;;;;;4.33;3.90;;;;;;;;;;5046958;28;20212;-60
2021/10/31 07:38:13;;;;;;;4.73;4.10;;;;;;;;;;5044732;28;20296;-61
2021/10/31 07:40:40;;;;;;;5.07;3.80;;;;;;;;;;5047738;28;20208;-61
2021/10/31 07:43:06;;;;;;;4.07;3.73;;;;;;;;;;5051301;28;20169;-61
2021/10/31 07:45:33;;;;;;;4.10;3.63;;;;;;;;;;5052712;28;20504;-60
2021/10/31 07:48:03;;;;;;;4.23;3.73;;;;;;;;;;5051485;28;20195;-61
2021/10/31 07:50:34;;;;;;;4.80;3.60;;;;;;;;;;5052216;28;20204;-61
2021/10/31 07:53:11;;;;;;;4.30;3.90;;;;;;;;;;5051899;28;20176;-60
2021/10/31 07:55:39;;;;;;;3.87;3.57;;;;;;;;;;5052536;28;20542;-60
2021/10/31 07:58:08;;;;;;;3.93;2.80;;;;;;;;;;5051418;28;20291;-60
2021/10/31 08:00:35;;;;;;;3.83;3.43;;;;;;;;;;5052347;28;20646;-60
2021/10/31 08:03:01;;;;;;;3.67;3.37;;;;;;;;;;5069627;28;20188;-59
2021/10/31 08:05:28;;;;;;;3.40;3.10;;;;;;;;;;5051908;28;20180;-59
2021/10/31 08:07:57;;;;;;;3.33;3.03;;;;;;;;;;5051095;28;20187;-60
2021/10/31 08:10:26;;;;;;;4.17;3.30;;;;;;;;;;5051923;28;20635;-60
2021/10/31 08:12:53;;;;;;;2.77;2.57;;;;;;;;;;5051672;28;20181;-60
2021/10/31 08:15:19;;;;;;;3.53;3.23;;;;;;;;;;5052031;28;20224;-60
2021/10/31 08:17:46;;;;;;;3.60;3.30;;;;;;;;;;5069156;28;20265;-60
2021/10/31 08:20:12;;;;;;;3.47;2.67;;;;;;;;;;5051258;28;20329;-59
2021/10/31 08:22:38;;;;;;;3.30;3.00;;;;;;;;;;5051401;28;20196;-59
2021/10/31 08:25:07;;;;;;;3.73;3.00;;;;;;;;;;5051944;28;20334;-61
2021/10/31 08:27:34;;;;;;;3.80;2.97;;;;;;;;;;5051618;28;20177;-60
2021/10/31 08:30:00;;;;;;;5.73;3.50;;;;;;;;;;5051563;28;20172;-59
2021/10/31 08:32:28;;;;;;;3.07;2.70;;;;;;;;;;5051772;28;20180;-59
2021/10/31 08:34:55;;;;;;;3.60;3.30;;;;;;;;;;5051079;28;20187;-61
2021/10/31 08:37:21;;;;;;;3.30;3.00;;;;;;;;;;5051229;28;20253;-60
2021/10/31 08:39:48;;;;;;;3.07;2.77;;;;;;;;;;5069593;28;20176;-59
2021/10/31 08:42:15;;;;;;;3.50;3.20;;;;;;;;;;5051307;28;20213;-61
2021/10/31 08:44:41;;;;;;;3.57;3.27;;;;;;;;;;5051256;28;20664;-59
2021/10/31 08:47:08;;;;;;;3.83;3.50;;;;;;;;;;5069472;28;20172;-59
2021/10/31 08:49:34;;;;;;;3.63;3.33;;;;;;;;;;5050146;28;20207;-59
2021/10/31 08:52:05;;;;;;;3.60;3.30;;;;;;;;;;5069322;28;20275;-63
2021/10/31 08:54:33;;;;;;;3.40;3.10;;;;;;;;;;5069053;28;20153;-60
2021/10/31 08:57:00;;;;;;;4.13;3.57;;;;;;;;;;5069542;28;20238;-60
2021/10/31 08:59:26;;;;;;;3.87;3.20;;;;;;;;;;5050722;28;20173;-60
2021/10/31 09:01:53;;;;;;;3.73;2.97;;;;;;;;;;5051357;28;20545;-59
2021/10/31 09:04:19;;;;;;;3.10;2.90;;;;;;;;;;5050184;28;20184;-60
2021/10/31 09:06:45;;;;;;;3.07;2.80;;;;;;;;;;5050607;28;20692;-58
2021/10/31 09:09:13;;;;;;;5.10;3.30;;;;;;;;;;5050821;28;20184;-59
2021/10/31 09:11:41;;;;;;;3.40;3.10;;;;;;;;;;5050743;28;20191;-59
2021/10/31 09:14:08;;;;;;;3.33;3.03;;;;;;;;;;5050788;28;20176;-59
2021/10/31 09:16:34;;;;;;;5.70;3.27;;;;;;;;;;5050219;28;20223;-60
2021/10/31 09:19:03;;;;;;;3.23;2.93;;;;;;;;;;5050439;28;20183;-60
2021/10/31 09:21:29;;;;;;;4.30;3.30;;;;;;;;;;5067839;28;20175;-59
2021/10/31 09:23:55;;;;;;;3.63;3.33;;;;;;;;;;5050080;28;20406;-59
2021/10/31 09:26:21;;;;;;;4.37;3.50;;;;;;;;;;5050374;28;20192;-60
2021/10/31 09:28:48;;;;;;;3.60;3.30;;;;;;;;;;5068221;28;20169;-59
2021/10/31 09:31:19;;;;;;;3.50;2.83;;;;;;;;;;5050361;28;20168;-60
2021/10/31 09:33:47;;;;;;;4.47;3.00;;;;;;;;;;5049780;28;20286;-60
2021/10/31 09:36:13;;;;;;;5.17;3.23;;;;;;;;;;5049291;28;20864;-60
2021/10/31 09:38:39;;;;;;;4.00;2.90;;;;;;;;;;5049939;28;20651;-60
2021/10/31 09:41:05;;;;;;;3.20;2.60;;;;;;;;;;5068510;28;20219;-60
2021/10/31 09:43:41;;;;;;;3.00;2.70;;;;;;;;;;5049898;28;20172;-60
2021/10/31 09:46:08;;;;;;;4.23;2.50;;;;;;;;;;5049830;28;20175;-61
2021/10/31 09:48:46;;;;;;;3.50;2.30;;;;;;;;;;5049804;28;20272;-62
2021/10/31 09:51:12;;;;;;;2.47;2.20;;;;;;;;;;5049243;28;20295;-61
2021/10/31 09:53:39;;;;;;;3.40;2.33;;;;;;;;;;5068191;28;20173;-61
2021/10/31 09:56:05;;;;;;;2.77;2.57;;;;;;;;;;5049784;28;20176;-61
2021/10/31 09:58:40;;;;;;;2.70;2.50;;;;;;;;;;5067571;28;20208;-61
2021/10/31 10:01:14;;;;;;;4.00;3.37;;;;;;;;;;5050120;28;20168;-61
2021/10/31 10:03:40;;;;;;;5.77;3.13;;;;;;;;;;5067549;28;20256;-61
2021/10/31 10:06:17;;;;;;;4.20;3.20;;;;;;;;;;5049054;28;20215;-61
2021/10/31 10:08:57;;;;;;;3.20;2.90;;;;;;;;;;5067589;28;20172;-61
2021/10/31 10:11:23;;;;;;;3.87;2.90;;;;;;;;;;5049861;28;20204;-61
2021/10/31 10:13:53;;;;;;;3.00;2.70;;;;;;;;;;5049664;28;20176;-60
2021/10/31 10:16:24;;;;;;;3.57;2.80;;;;;;;;;;5037674;28;20707;-60
2021/10/31 10:18:51;;;;;;;2.60;2.27;;;;;;;;;;5029234;28;20185;-60
2021/10/31 10:21:18;;;;;;;2.67;2.47;;;;;;;;;;5028848;28;20335;-65
2021/10/31 10:23:56;;;;;;;3.00;2.60;;;;;;;;;;5029419;28;20651;-60
2021/10/31 10:26:24;;;;;;;2.43;2.20;;;;;;;;;;5029867;28;20687;-60
2021/10/31 10:28:51;;;;;;;2.97;2.67;;;;;;;;;;5047931;28;20655;-65
2021/10/31 10:31:24;;;;;;;3.37;2.43;;;;;;;;;;5048049;28;20292;-67
2021/10/31 10:33:54;;;;;;;3.10;2.20;;;;;;;;;;5044461;28;20177;-66
2021/10/31 10:36:20;;;;;;;5.13;2.37;;;;;;;;;;5009032;28;20532;-62
2021/10/31 10:39:06;;;;;;;4.03;2.00;;;;;;;;;;5009761;28;20660;-63
2021/10/31 10:42:05;;;;;;;2.60;2.40;;;;;;;;;;5009712;28;20339;-63
2021/10/31 10:44:39;;;;;;;3.57;2.40;;;;;;;;;;4970436;28;20638;-63
2021/10/31 10:47:08;;;;;;;3.10;2.13;;;;;;;;;;5029537;28;20180;-63
2021/10/31 10:49:39;;;;;;;2.97;2.37;;;;;;;;;;5028562;28;20177;-62
2021/10/31 10:52:06;;;;;;;4.03;2.30;;;;;;;;;;5029085;28;20179;-63
2021/10/31 10:54:35;;;;;;;2.20;2.00;;;;;;;;;;5029489;28;20726;-63
2021/10/31 10:57:02;;;;;;;3.67;2.10;;;;;;;;;;5029485;28;20200;-63
2021/10/31 10:59:28;;;;;;;4.57;3.33;;;;;;;;;;5029195;28;20663;-63
2021/10/31 11:02:15;;;;;;;6.00;4.70;;;;;;;;;;5029578;28;20169;-63
2021/10/31 11:04:42;;;;;;;5.00;4.50;;;;;;;;;;5028568;28;20669;-64
2021/10/31 11:07:16;;;;;;;5.57;4.97;;;;;;;;;;5028994;28;20204;-63
2021/10/31 11:09:47;;;;;;;4.97;4.10;;;;;;;;;;5029324;28;20220;-62
2021/10/31 11:12:23;;;;;;;6.67;4.53;;;;;;;;;;5029842;28;20169;-62
2021/10/31 11:14:51;;;;;;;6.70;4.57;;;;;;;;;;5029669;28;20226;-62
2021/10/31 11:17:21;;;;;;;4.67;4.10;;;;;;;;;;5052099;28;20220;-63
2021/10/31 11:19:49;;;;;;;6.07;4.17;;;;;;;;;;5051910;28;20575;-63
2021/10/31 11:22:16;;;;;;;4.03;3.63;;;;;;;;;;5052376;28;20168;-63
2021/10/31 11:24:46;;;;;;;4.50;4.10;;;;;;;;;;5052539;28;20168;-63
2021/10/31 11:27:12;;;;;;;4.60;4.20;;;;;;;;;;5071225;28;20255;-63
2021/10/31 11:29:42;;;;;;;4.67;3.90;;;;;;;;;;5070367;28;20176;-63
2021/10/31 11:32:09;;;;;;;3.87;3.20;;;;;;;;;;5052936;28;20465;-63
2021/10/31 11:34:37;;;;;;;3.73;3.43;;;;;;;;;;5051509;28;20233;-62
2021/10/31 11:37:04;;;;;;;3.93;3.57;;;;;;;;;;5052605;28;20266;-62
2021/10/31 11:39:33;;;;;;;3.67;3.27;;;;;;;;;;5070130;28;20237;-62
2021/10/31 11:42:00;;;;;;;4.90;4.00;;;;;;;;;;5052826;28;20204;-62
2021/10/31 11:44:33;;;;;;;4.60;3.57;;;;;;;;;;5049924;28;20172;-62
2021/10/31 11:46:59;;;;;;;11.03;3.83;;;;;;;;;;5050865;28;20290;-62
2021/10/31 11:49:27;;;;;;;3.80;3.50;;;;;;;;;;5047873;28;20181;-62
2021/10/31 11:51:54;;;;;;;3.70;3.40;;;;;;;;;;5049101;28;20652;-62
2021/10/31 11:54:21;;;;;;;3.53;3.07;;;;;;;;;;5050245;28;20173;-63
2021/10/31 11:56:51;;;;;;;4.10;3.57;;;;;;;;;;5050765;28;20274;-63
2021/10/31 11:59:18;;;;;;;7.60;3.20;;;;;;;;;;5048863;28;20177;-63
2021/10/31 12:01:48;;;;;;;3.23;2.90;;;;;;;;;;5049193;28;20173;-64
2021/10/31 12:04:15;;;;;;;3.63;3.33;;;;;;;;;;5048087;28;20219;-64
2021/10/31 12:06:43;;;;;;;3.30;2.97;;;;;;;;;;5048441;28;20185;-64
2021/10/31 12:09:38;;;;;;;2.87;2.60;;;;;;;;;;5050109;28;20179;-64
2021/10/31 12:12:05;;;;;;;4.97;2.87;;;;;;;;;;5011402;28;20251;-64
2021/10/31 12:14:42;;;;;;;4.57;3.40;;;;;;;;;;5048763;28;20176;-64
2021/10/31 12:17:09;;;;;;;4.37;3.40;;;;;;;;;;5049964;28;20325;-64
2021/10/31 12:19:48;;;;;;;3.27;2.97;;;;;;;;;;5047545;28;20526;-64
2021/10/31 12:22:19;;;;;;;4.27;3.30;;;;;;;;;;5048182;28;20180;-64
2021/10/31 12:24:57;;;;;;;3.20;2.90;;;;;;;;;;5048525;28;20173;-64
2021/10/31 12:27:24;;;;;;;3.43;3.13;;;;;;;;;;5048353;28;20193;-63
2021/10/31 12:29:59;;;;;;;3.47;3.17;;;;;;;;;;5048501;28;20370;-64
2021/10/31 12:32:30;;;;;;;5.87;3.13;;;;;;;;;;5048283;28;20549;-63
2021/10/31 12:34:57;;;;;;;3.57;3.13;;;;;;;;;;5051252;28;20183;-64
2021/10/31 12:37:29;;;;;;;3.40;3.10;;;;;;;;;;5051229;28;20204;-63
2021/10/31 12:40:06;;;;;;;3.60;3.23;;;;;;;;;;5051339;28;20239;-64
2021/10/31 12:43:04;;;;;;;3.40;3.00;;;;;;;;;;5051332;28;20165;-64
2021/10/31 12:45:33;;;;;;;3.57;2.87;;;;;;;;;;5049391;28;20261;-64
2021/10/31 12:48:02;;;;;;;3.57;3.23;;;;;;;;;;5030996;28;20185;-64
2021/10/31 12:50:33;;;;;;;3.20;2.90;;;;;;;;;;5031099;28;20177;-64
2021/10/31 12:53:08;;;;;;;3.67;2.80;;;;;;;;;;5031044;28;20247;-65
2021/10/31 12:55:37;;;;;;;3.40;3.10;;;;;;;;;;5031570;28;20502;-65
2021/10/31 12:58:08;;;;;;;2.63;2.43;;;;;;;;;;5030929;28;20217;-64
2021/10/31 13:00:42;;;;;;;2.87;2.67;;;;;;;;;;5030993;28;20176;-65
2021/10/31 13:03:09;;;;;;;3.77;3.27;;;;;;;;;;5030916;28;20434;-64
2021/10/31 13:05:38;;;;;;;2.87;2.67;;;;;;;;;;5048789;28;20180;-65
2021/10/31 13:08:08;;;;;;;3.50;3.00;;;;;;;;;;5050014;28;20184;-65
2021/10/31 13:10:36;;;;;;;2.93;2.73;;;;;;;;;;5050650;28;20176;-64
2021/10/31 13:13:10;;;;;;;4.67;2.63;;;;;;;;;;5050753;28;20187;-64
2021/10/31 13:15:39;;;;;;;3.97;3.57;;;;;;;;;;5050507;28;20599;-64
2021/10/31 13:18:12;;;;;;;3.23;2.93;;;;;;;;;;5050272;28;20800;-64
2021/10/31 13:20:46;;;;;;;2.70;2.50;;;;;;;;;;5068606;28;20177;-64
2021/10/31 13:23:21;;;;;;;2.73;2.53;;;;;;;;;;5068502;28;20239;-63
2021/10/31 13:26:06;;;;;;;2.80;2.60;;;;;;;;;;5050425;28;20242;-64
2021/10/31 13:28:38;;;;;;;3.50;3.20;;;;;;;;;;5050425;28;20176;-65
2021/10/31 13:31:04;;;;;;;2.47;2.27;;;;;;;;;;5050316;28;20184;-64
2021/10/31 13:33:33;;;;;;;2.87;2.67;;;;;;;;;;5050127;28;20184;-64
2021/10/31 13:36:17;;;;;;;4.27;2.70;;;;;;;;;;5049953;28;20563;-63
2021/10/31 13:39:06;;;;;;;2.57;2.37;;;;;;;;;;5049617;28;20664;-64
2021/10/31 13:41:38;;;;;;;3.10;2.90;;;;;;;;;;5068170;28;20178;-64
2021/10/31 13:44:08;;;;;;;2.70;2.50;;;;;;;;;;5048807;28;20196;-64
2021/10/31 13:46:38;;;;;;;3.17;2.93;;;;;;;;;;5046669;28;20304;-64
2021/10/31 13:49:08;;;;;;;3.10;2.90;;;;;;;;;;5045906;28;20276;-64
2021/10/31 13:51:41;;;;;;;3.10;2.90;;;;;;;;;;5047509;28;20204;-64
2021/10/31 13:54:11;;;;;;;3.23;2.93;;;;;;;;;;5029988;28;20212;-64
2021/10/31 13:56:38;;;;;;;2.70;2.50;;;;;;;;;;5029939;28;20204;-64
2021/10/31 13:59:05;;;;;;;3.93;2.20;;;;;;;;;;5029747;28;20188;-64
2021/10/31 14:01:48;;;;;;;3.27;2.37;;;;;;;;;;5029952;28;20565;-65
2021/10/31 14:04:24;;;;;;;3.20;2.90;;;;;;;;;;5029933;28;20490;-65
2021/10/31 14:07:02;;;;;;;2.17;2.00;;;;;;;;;;5029949;28;20455;-65
2021/10/31 14:09:32;;;;;;;2.70;2.50;;;;;;;;;;5029723;28;20180;-64
2021/10/31 14:11:59;;;;;;;2.03;1.93;;;;;;;;;;5048054;28;20708;-64
2021/10/31 14:14:36;;;;;;;2.80;2.43;;;;;;;;;;5029891;28;20181;-65
2021/10/31 14:17:17;;;;;;;3.30;2.47;;;;;;;;;;5016485;28;20221;-64
2021/10/31 14:20:04;;;;;;;2.17;2.07;;;;;;;;;;5009180;28;20181;-64
2021/10/31 14:22:48;;;;;;;2.47;2.27;;;;;;;;;;5009406;28;20177;-64
2021/10/31 14:25:28;;;;;;;2.30;2.10;;;;;;;;;;5009599;28;20534;-64
2021/10/31 14:28:12;;;;;;;5.00;1.90;;;;;;;;;;5009709;28;20181;-64
2021/10/31 14:30:57;;;;;;;2.50;2.07;;;;;;;;;;5009648;28;20235;-64
2021/10/31 14:33:46;;;;;;;2.33;2.00;;;;;;;;;;5009384;28;20592;-64
2021/10/31 14:36:24;;;;;;;1.90;1.80;;;;;;;;;;5008849;28;20729;-64
2021/10/31 14:38:57;;;;;;;2.73;1.70;;;;;;;;;;5009812;28;20212;-64
2021/10/31 14:41:35;;;;;;;2.17;1.83;;;;;;;;;;5027473;28;20540;-64
2021/10/31 14:44:05;;;;;;;2.30;1.80;;;;;;;;;;5029324;28;20172;-65
2021/10/31 14:46:41;;;;;;;3.30;2.00;;;;;;;;;;5067475;28;20174;-64
2021/10/31 14:49:18;;;;;;;2.83;2.00;;;;;;;;;;5068340;28;20146;-65
2021/10/31 14:51:48;;;;;;;2.83;1.80;;;;;;;;;;5069844;28;20209;-65
2021/10/31 14:54:23;;;;;;;3.47;2.73;;;;;;;;;;5053126;28;20223;-65
2021/10/31 14:57:12;;;;;;;1.90;1.80;;;;;;;;;;5053259;28;20203;-65